Time;durP1;ratioP1;P1;durP2;ratioP2;P2;SDS_P1;SDS_P2;PMS_P1;PMS_P2;Temp;Humidity;BMP_temperature;BMP_pressure;BME280_temperature;BME280_humidity;BME280_pressure;Samples;Min_cycle;Max_cycle;Signal;HPM_P1;HPM_P2
2021/08/16 00:02:11;;;;;;;35.35;20.52;;;;;;;19.78;100.00;98965.98;1722523;83;21438;-69
2021/08/16 00:04:38;;;;;;;39.78;23.50;;;;;;;19.79;100.00;98972.60;1714390;82;21046;-70
2021/08/16 00:07:07;;;;;;;37.83;22.50;;;;;;;19.77;100.00;98970.47;1696619;83;21569;-69
2021/08/16 00:09:36;;;;;;;34.65;20.85;;;;;;;19.76;100.00;98970.54;1716208;83;21536;-69
2021/08/16 00:12:06;;;;;;;30.97;19.70;;;;;;;19.72;100.00;98966.27;1693955;83;21522;-69
2021/08/16 00:14:36;;;;;;;28.90;19.92;;;;;;;19.68;100.00;98961.52;1695316;84;21486;-69
2021/08/16 00:17:06;;;;;;;34.15;22.90;;;;;;;19.65;100.00;98960.80;1696754;83;21003;-70
2021/08/16 00:19:34;;;;;;;37.67;22.65;;;;;;;19.63;100.00;98961.34;1678315;83;21985;-70
2021/08/16 00:22:03;;;;;;;35.03;22.25;;;;;;;19.60;100.00;98954.79;1698361;83;21529;-70
2021/08/16 00:24:32;;;;;;;36.55;21.02;;;;;;;19.58;100.00;98958.00;1717148;82;21518;-69
2021/08/16 00:27:01;;;;;;;34.53;21.82;;;;;;;19.58;100.00;98958.88;1696486;83;21394;-69
2021/08/16 00:29:30;;;;;;;38.33;24.43;;;;;;;19.57;100.00;98953.59;1703454;83;20942;-69
2021/08/16 00:32:00;;;;;;;39.98;22.93;;;;;;;19.55;100.00;98948.31;1728466;83;21379;-69
2021/08/16 00:34:29;;;;;;;32.60;21.87;;;;;;;19.54;100.00;98943.90;1725893;83;21485;-68
2021/08/16 00:36:58;;;;;;;32.55;21.48;;;;;;;19.52;100.00;98948.42;1726065;82;21394;-69
2021/08/16 00:39:26;;;;;;;36.95;23.50;;;;;;;19.50;100.00;98947.62;1726523;83;20998;-68
2021/08/16 00:41:55;;;;;;;46.25;22.32;;;;;;;19.47;100.00;98948.63;1727149;82;22139;-69
2021/08/16 00:44:23;;;;;;;35.25;22.82;;;;;;;19.46;100.00;98948.70;1717234;82;21122;-68
2021/08/16 00:46:51;;;;;;;33.05;20.27;;;;;;;19.46;100.00;98948.23;1708901;82;21037;-68
2021/08/16 00:49:19;;;;;;;37.67;19.98;;;;;;;19.45;100.00;98950.50;1736963;82;21003;-68
2021/08/16 00:51:48;;;;;;;36.77;18.90;;;;;;;19.43;100.00;98940.81;1735212;82;21060;-68
2021/08/16 00:54:15;;;;;;;32.45;18.80;;;;;;;19.42;100.00;98943.95;1736691;82;21002;-68
2021/08/16 00:56:43;;;;;;;30.48;19.62;;;;;;;19.39;100.00;98936.07;1717402;82;21152;-69
2021/08/16 00:59:12;;;;;;;33.33;18.07;;;;;;;19.39;100.00;98940.08;1709068;84;21509;-68
2021/08/16 01:01:40;;;;;;;30.37;18.77;;;;;;;19.40;100.00;98935.13;1725373;82;21492;-69
2021/08/16 01:04:10;;;;;;;27.40;17.27;;;;;;;19.40;100.00;98936.47;1735079;82;21579;-68
2021/08/16 01:06:37;;;;;;;27.95;17.55;;;;;;;19.41;100.00;98940.88;1737459;82;21085;-69
2021/08/16 01:09:06;;;;;;;24.92;16.95;;;;;;;19.41;100.00;98949.37;1737328;82;21923;-69
2021/08/16 01:11:33;;;;;;;24.57;15.90;;;;;;;19.37;100.00;98944.59;1735237;82;21504;-69
2021/08/16 01:14:03;;;;;;;26.17;16.10;;;;;;;19.36;100.00;98948.21;1728127;82;21786;-69
2021/08/16 01:16:32;;;;;;;24.63;15.30;;;;;;;19.35;100.00;98943.80;1703542;82;21523;-68
2021/08/16 01:19:02;;;;;;;27.07;14.75;;;;;;;19.34;100.00;98943.41;1709484;84;21523;-68
2021/08/16 01:21:29;;;;;;;23.73;14.55;;;;;;;19.37;100.00;98938.38;1709338;84;21140;-68
2021/08/16 01:23:58;;;;;;;25.15;15.78;;;;;;;19.36;100.00;98931.30;1711813;82;21437;-68
2021/08/16 01:26:26;;;;;;;22.42;14.73;;;;;;;19.35;100.00;98926.42;1709732;82;21107;-69
2021/08/16 01:28:53;;;;;;;25.35;14.55;;;;;;;19.34;100.00;98930.03;1703453;82;21129;-68
2021/08/16 01:31:21;;;;;;;22.87;14.90;;;;;;;19.33;100.00;98927.42;1723735;82;21559;-68
2021/08/16 01:33:50;;;;;;;20.82;14.00;;;;;;;19.30;100.00;98924.89;1738627;82;21176;-69
2021/08/16 01:36:17;;;;;;;23.30;14.03;;;;;;;19.27;100.00;98921.88;1739279;82;20993;-68
2021/08/16 01:38:45;;;;;;;23.65;13.80;;;;;;;19.25;100.00;98930.45;1739402;82;21002;-68
2021/08/16 01:41:13;;;;;;;22.10;13.68;;;;;;;19.25;100.00;98929.58;1735479;82;21049;-68
2021/08/16 01:43:41;;;;;;;23.30;13.38;;;;;;;19.24;100.00;98925.16;1726786;82;21425;-67
2021/08/16 01:46:09;;;;;;;20.17;13.10;;;;;;;19.21;100.00;98923.97;1720680;83;21248;-68
2021/08/16 01:48:37;;;;;;;20.08;13.48;;;;;;;19.20;100.00;98925.77;1696819;84;21089;-68
2021/08/16 01:51:06;;;;;;;22.45;12.75;;;;;;;19.16;100.00;98918.35;1724175;83;21560;-68
2021/08/16 01:53:34;;;;;;;18.30;12.45;;;;;;;19.16;100.00;98926.84;1729194;83;21002;-68
2021/08/16 01:56:02;;;;;;;19.60;12.70;;;;;;;19.13;100.00;98920.30;1727052;83;21484;-67
2021/08/16 01:58:31;;;;;;;20.17;12.43;;;;;;;19.12;100.00;98918.09;1729084;83;21138;-68
2021/08/16 02:00:59;;;;;;;21.07;12.78;;;;;;;19.12;100.00;98915.42;1726778;83;20973;-68
2021/08/16 02:03:27;;;;;;;19.42;12.68;;;;;;;19.11;100.00;98917.69;1729557;83;21520;-67
2021/08/16 02:05:55;;;;;;;22.02;13.32;;;;;;;19.09;100.00;98914.69;1727169;83;21042;-68
2021/08/16 02:08:24;;;;;;;20.37;13.45;;;;;;;19.06;100.00;98916.16;1729377;83;21595;-68
2021/08/16 02:10:54;;;;;;;20.60;12.90;;;;;;;19.04;100.00;98915.36;1728988;83;21465;-68
2021/08/16 02:13:22;;;;;;;22.40;12.80;;;;;;;19.01;100.00;98913.69;1727005;83;21508;-68
2021/08/16 02:15:51;;;;;;;25.02;12.40;;;;;;;19.00;100.00;98917.77;1698295;83;21517;-68
2021/08/16 02:18:19;;;;;;;18.30;12.58;;;;;;;19.00;100.00;98917.30;1722005;82;20978;-68
2021/08/16 02:20:48;;;;;;;19.75;12.58;;;;;;;18.97;100.00;98921.44;1725911;82;21429;-68
2021/08/16 02:23:17;;;;;;;22.15;12.75;;;;;;;18.95;100.00;98921.11;1725247;82;21458;-68
2021/08/16 02:25:44;;;;;;;21.50;12.78;;;;;;;18.92;100.00;98921.21;1714981;82;21025;-67
2021/08/16 02:28:19;;;;;;;22.60;13.58;;;;;;;18.88;100.00;98920.01;1718186;83;21547;-68
2021/08/16 02:30:48;;;;;;;23.12;12.65;;;;;;;18.87;100.00;98926.75;1726515;83;20962;-68
2021/08/16 02:33:16;;;;;;;20.00;13.28;;;;;;;18.85;100.00;98924.15;1729395;83;20994;-68
2021/08/16 02:35:44;;;;;;;21.17;12.00;;;;;;;18.85;100.00;98929.96;1727264;83;21112;-68
2021/08/16 02:38:12;;;;;;;21.27;12.60;;;;;;;18.83;100.00;98937.17;1726131;82;21038;-68
2021/08/16 02:40:41;;;;;;;19.70;12.13;;;;;;;18.78;100.00;98936.04;1728066;82;21410;-68
2021/08/16 02:43:09;;;;;;;19.98;12.40;;;;;;;18.74;100.00;98942.45;1725802;82;20998;-68
2021/08/16 02:45:38;;;;;;;20.85;12.68;;;;;;;18.69;100.00;98941.77;1720429;82;20986;-67
2021/08/16 02:48:06;;;;;;;22.62;11.95;;;;;;;18.65;100.00;98941.50;1728417;83;21248;-68
2021/08/16 02:50:35;;;;;;;15.90;11.12;;;;;;;18.64;100.00;98942.91;1701969;83;21608;-68
2021/08/16 02:53:03;;;;;;;25.72;13.08;;;;;;;18.63;100.00;98944.70;1696802;83;21533;-68
2021/08/16 02:55:32;;;;;;;22.70;14.03;;;;;;;18.61;100.00;98945.20;1728799;83;21670;-67
2021/08/16 02:58:00;;;;;;;23.47;14.68;;;;;;;18.58;100.00;98948.47;1729494;83;20970;-68
2021/08/16 03:00:30;;;;;;;24.60;15.20;;;;;;;18.54;100.00;98939.25;1714753;83;21553;-67
2021/08/16 03:02:57;;;;;;;23.47;15.13;;;;;;;18.52;100.00;98938.91;1703938;83;20911;-67
2021/08/16 03:05:26;;;;;;;24.63;14.93;;;;;;;18.48;100.00;98939.97;1729458;83;20930;-67
2021/08/16 03:07:56;;;;;;;25.25;16.30;;;;;;;18.47;100.00;98944.91;1729220;83;21470;-67
2021/08/16 03:10:23;;;;;;;24.70;15.58;;;;;;;18.46;100.00;98949.38;1727303;82;21018;-67
2021/08/16 03:12:53;;;;;;;24.70;13.50;;;;;;;18.46;100.00;98951.19;1725633;83;21481;-68
2021/08/16 03:15:21;;;;;;;22.02;14.18;;;;;;;18.44;100.00;98949.87;1696248;83;21072;-67
2021/08/16 03:17:51;;;;;;;24.63;15.18;;;;;;;18.42;100.00;98949.08;1708500;83;21465;-68
2021/08/16 03:20:21;;;;;;;19.85;14.20;;;;;;;18.40;100.00;98943.39;1698886;83;20943;-66
2021/08/16 03:22:49;;;;;;;23.35;14.70;;;;;;;18.38;100.00;98946.12;1716265;83;20998;-64
2021/08/16 03:25:18;;;;;;;97.78;22.07;;;;;;;18.38;100.00;98938.12;1726488;82;21406;-63
2021/08/16 03:27:46;;;;;;;109.42;22.52;;;;;;;18.39;100.00;98936.31;1724409;82;20935;-63
2021/08/16 03:30:15;;;;;;;55.92;17.77;;;;;;;18.42;100.00;98938.39;1710633;82;20999;-63
2021/08/16 03:32:42;;;;;;;28.83;15.32;;;;;;;18.44;100.00;98935.19;1703911;83;20918;-63
2021/08/16 03:35:11;;;;;;;31.85;15.50;;;;;;;18.46;100.00;98938.70;1714432;83;21465;-62
2021/08/16 03:37:39;;;;;;;27.50;14.83;;;;;;;18.48;100.00;98940.84;1696822;83;21564;-63
2021/08/16 03:40:10;;;;;;;24.57;13.90;;;;;;;18.50;100.00;98941.64;1696714;84;21521;-62
2021/08/16 03:42:38;;;;;;;22.90;13.60;;;;;;;18.56;100.00;98943.19;1699464;84;21123;-62
2021/08/16 03:45:14;;;;;;;26.35;13.43;;;;;;;18.61;100.00;98944.33;1711514;82;21033;-62
2021/08/16 03:47:43;;;;;;;30.57;14.18;;;;;;;18.64;100.00;98940.23;1709411;84;20986;-65
2021/08/16 03:50:12;;;;;;;32.48;13.53;;;;;;;18.67;100.00;98950.32;1710152;82;21465;-63
2021/08/16 03:52:40;;;;;;;26.77;11.97;;;;;;;18.68;100.00;98939.17;1712331;82;20990;-62
2021/08/16 03:55:10;;;;;;;28.98;12.33;;;;;;;18.71;100.00;98943.91;1723867;82;21601;-62
2021/08/16 03:57:40;;;;;;;19.50;11.70;;;;;;;18.74;100.00;98942.91;1710121;82;21532;-60
2021/08/16 04:00:11;;;;;;;17.87;11.73;;;;;;;18.76;100.00;98942.38;1722885;82;21532;-62
2021/08/16 04:02:42;;;;;;;24.60;12.28;;;;;;;18.81;100.00;98950.61;1737724;82;21105;-60
2021/08/16 04:05:11;;;;;;;21.95;11.85;;;;;;;18.85;100.00;98945.53;1722353;82;21034;-61
2021/08/16 04:07:43;;;;;;;26.27;11.90;;;;;;;18.91;100.00;98948.87;1711527;82;21045;-60
2021/08/16 04:10:12;;;;;;;24.40;12.23;;;;;;;18.96;100.00;98945.09;1726897;82;21045;-61
2021/08/16 04:12:42;;;;;;;27.00;12.85;;;;;;;19.02;100.00;98943.49;1736093;82;20927;-61
2021/08/16 04:15:14;;;;;;;22.05;12.60;;;;;;;19.11;100.00;98948.91;1737339;82;21505;-63
2021/08/16 04:17:43;;;;;;;24.12;13.18;;;;;;;19.17;100.00;98947.30;1709166;82;21548;-62
2021/08/16 04:20:11;;;;;;;27.25;14.20;;;;;;;19.23;100.00;98946.16;1709782;82;21128;-62
2021/08/16 04:22:40;;;;;;;26.82;14.45;;;;;;;19.26;100.00;98950.03;1710204;82;20982;-62
2021/08/16 04:25:10;;;;;;;29.87;13.72;;;;;;;19.30;100.00;98960.99;1709863;82;20926;-61
2021/08/16 04:27:40;;;;;;;24.43;13.13;;;;;;;19.37;100.00;98961.12;1711510;82;21438;-62
2021/08/16 04:30:09;;;;;;;24.63;13.75;;;;;;;19.49;100.00;98966.81;1709742;82;20914;-61
2021/08/16 04:32:37;;;;;;;38.45;15.20;;;;;;;19.59;100.00;98969.97;1736980;82;20930;-66
2021/08/16 04:35:07;;;;;;;32.20;14.78;;;;;;;19.70;100.00;98972.16;1737609;82;21485;-63
2021/08/16 04:37:40;;;;;;;31.82;14.05;;;;;;;19.79;100.00;98967.72;1735661;82;21001;-63
2021/08/16 04:40:10;;;;;;;41.35;13.48;;;;;;;19.87;100.00;98971.41;1737156;82;21823;-64
2021/08/16 04:42:38;;;;;;;33.23;14.47;;;;;;;19.97;100.00;98970.91;1737034;82;20946;-64
2021/08/16 04:45:11;;;;;;;30.05;15.23;;;;;;;20.07;100.00;98975.35;1728397;83;21600;-69
2021/08/16 04:47:43;;;;;;;28.70;16.05;;;;;;;20.17;100.00;98975.78;1677818;82;37498;-69
2021/08/16 04:50:13;;;;;;;30.57;16.27;;;;;;;20.21;100.00;98978.71;1725851;82;21021;-69
2021/08/16 04:52:41;;;;;;;25.37;16.25;;;;;;;20.13;100.00;98977.27;1725221;82;21090;-67
2021/08/16 04:55:10;;;;;;;27.62;17.37;;;;;;;20.06;100.00;98966.92;1700269;81;20891;-69
2021/08/16 04:57:40;;;;;;;32.28;18.48;;;;;;;20.08;100.00;98970.39;1701669;82;21438;-69
2021/08/16 05:00:11;;;;;;;28.12;16.07;;;;;;;20.07;100.00;98959.28;1706658;83;20942;-69
2021/08/16 05:02:40;;;;;;;25.68;15.70;;;;;;;20.06;100.00;98959.76;1668988;86;21455;-68
2021/08/16 05:05:11;;;;;;;32.98;16.80;;;;;;;19.98;100.00;98959.25;1669137;84;21138;-68
2021/08/16 05:07:49;;;;;;;24.43;15.50;;;;;;;19.88;100.00;98957.09;1676317;83;20950;-68
2021/08/16 05:10:18;;;;;;;186.10;28.67;;;;;;;19.86;100.00;98949.09;1698961;83;21046;-68
2021/08/16 05:12:46;;;;;;;29.15;15.00;;;;;;;19.91;100.00;98941.75;1696843;83;21042;-67
2021/08/16 05:15:14;;;;;;;20.27;13.18;;;;;;;20.00;100.00;98941.78;1697451;83;21089;-69
2021/08/16 05:17:44;;;;;;;21.80;13.03;;;;;;;20.04;100.00;98934.86;1701674;83;21618;-68
2021/08/16 05:20:13;;;;;;;18.15;12.47;;;;;;;20.12;100.00;98925.13;1709351;82;20962;-68
2021/08/16 05:22:45;;;;;;;20.08;12.23;;;;;;;20.20;100.00;98925.62;1696400;83;20938;-68
2021/08/16 05:25:17;;;;;;;19.25;13.48;;;;;;;20.26;100.00;98920.43;1696812;83;20955;-68
2021/08/16 05:27:46;;;;;;;;;;;;;;;20.35;100.00;98922.69;1678426;84;21687;-69
2021/08/16 05:30:14;;;;;;;51.55;14.68;;;;;;;20.46;100.00;98922.19;1699091;83;21159;-70
2021/08/16 05:32:42;;;;;;;22.75;13.48;;;;;;;20.60;100.00;98921.89;1687651;84;21013;-69
2021/08/16 05:35:11;;;;;;;26.50;13.68;;;;;;;20.74;100.00;98930.09;1709933;82;21438;-69
2021/08/16 05:37:45;;;;;;;22.62;13.25;;;;;;;20.89;100.00;98935.17;1725731;82;20919;-69
2021/08/16 05:40:14;;;;;;;24.15;12.85;;;;;;;21.04;100.00;98936.20;1722707;82;21082;-69
2021/08/16 05:42:42;;;;;;;23.27;13.15;;;;;;;21.18;100.00;98935.00;1700262;83;21103;-66
2021/08/16 05:45:12;;;;;;;20.85;13.28;;;;;;;21.30;100.00;98935.76;1698929;84;21054;-68
2021/08/16 05:47:41;;;;;;;22.82;13.10;;;;;;;21.43;100.00;98936.44;1692031;84;21511;-69
2021/08/16 05:50:15;;;;;;;19.57;13.60;;;;;;;21.57;100.00;98945.95;1700473;84;20943;-68
2021/08/16 05:52:42;;;;;;;19.02;12.70;;;;;;;21.69;100.00;98938.58;1700363;84;21619;-68
2021/08/16 05:55:12;;;;;;;23.12;12.98;;;;;;;21.87;100.00;98939.41;1645025;87;21487;-68
2021/08/16 05:57:40;;;;;;;21.12;13.25;;;;;;;22.02;100.00;98939.03;1693543;84;20939;-69
2021/08/16 06:00:10;;;;;;;34.05;14.83;;;;;;;22.17;100.00;98942.23;1686570;84;20955;-69
2021/08/16 06:02:38;;;;;;;20.82;13.28;;;;;;;22.30;100.00;98944.64;1673050;85;21485;-69
2021/08/16 06:05:07;;;;;;;20.70;12.68;;;;;;;22.43;100.00;98945.67;1641794;87;20987;-69
2021/08/16 06:07:35;;;;;;;21.73;12.50;;;;;;;22.55;100.00;98950.34;1667923;86;21540;-70
2021/08/16 06:10:07;;;;;;;19.55;13.18;;;;;;;22.68;100.00;98945.58;1645096;85;21419;-70
2021/08/16 06:12:41;;;;;;;45.38;15.10;;;;;;;22.81;100.00;98956.07;1651472;86;20963;-70
2021/08/16 06:15:12;;;;;;;21.12;13.08;;;;;;;22.93;100.00;98954.00;1650877;86;21482;-69
2021/08/16 06:17:41;;;;;;;20.55;12.95;;;;;;;23.06;100.00;98957.69;1623266;86;20927;-68
2021/08/16 06:20:12;;;;;;;46.77;14.28;;;;;;;23.18;100.00;98962.36;1655751;85;21171;-68
2021/08/16 06:22:42;;;;;;;45.08;13.70;;;;;;;23.31;100.00;98962.95;1655454;85;20980;-68
2021/08/16 06:25:11;;;;;;;21.67;12.03;;;;;;;23.44;100.00;98962.11;1657300;85;21012;-69
2021/08/16 06:27:39;;;;;;;20.95;11.63;;;;;;;23.57;100.00;98960.03;1652927;85;21026;-69
2021/08/16 06:30:10;;;;;;;19.12;11.00;;;;;;;23.68;100.00;98961.61;1638767;86;20980;-69
2021/08/16 06:32:40;;;;;;;30.20;12.37;;;;;;;23.81;100.00;98961.22;1648000;85;21952;-69
2021/08/16 06:35:15;;;;;;;20.00;11.93;;;;;;;23.92;100.00;98961.41;1638611;86;20973;-69
2021/08/16 06:37:45;;;;;;;15.30;10.40;;;;;;;24.06;100.00;98961.39;1655613;86;21039;-68
2021/08/16 06:40:14;;;;;;;22.70;11.65;;;;;;;24.21;100.00;98958.22;1641709;86;20924;-61
2021/08/16 06:42:43;;;;;;;29.05;9.33;;;;;;;24.35;100.00;98960.91;1630908;87;21566;-70
2021/08/16 06:45:15;;;;;;;14.50;7.72;;;;;;;24.49;100.00;98961.36;1669613;85;21122;-69
2021/08/16 06:47:43;;;;;;;;;;;;;;;24.63;100.00;98961.81;1677399;85;20942;-69
2021/08/16 06:50:12;;;;;;;17.23;7.92;;;;;;;24.77;100.00;98957.72;1674882;85;20089;-69
2021/08/16 06:52:41;;;;;;;16.25;8.43;;;;;;;24.90;100.00;98950.52;1674981;85;20972;-69
2021/08/16 06:55:12;;;;;;;38.53;9.65;;;;;;;25.05;100.00;98959.44;1675342;85;20987;-69
2021/08/16 06:57:41;;;;;;;17.95;7.28;;;;;;;25.19;100.00;98962.57;1673612;85;20899;-69
2021/08/16 07:00:11;;;;;;;17.27;6.80;;;;;;;25.32;100.00;98962.10;1677287;85;21031;-70
2021/08/16 07:02:40;;;;;;;15.83;6.85;;;;;;;25.47;100.00;98961.52;1693946;84;21105;-71
2021/08/16 07:05:10;;;;;;;13.93;6.90;;;;;;;25.61;100.00;98957.39;1697727;84;21823;-69
2021/08/16 07:07:41;;;;;;;14.43;6.65;;;;;;;25.76;100.00;98952.77;1701776;82;21536;-71
2021/08/16 07:10:10;;;;;;;47.83;10.00;;;;;;;25.86;100.00;98949.30;1698352;84;21144;-70
2021/08/16 07:12:39;;;;;;;11.18;6.40;;;;;;;26.00;100.00;98949.65;1697891;84;21092;-72
2021/08/16 07:15:10;;;;;;;21.50;7.10;;;;;;;26.10;100.00;98952.09;1694477;84;21058;-71
2021/08/16 07:17:37;;;;;;;8.68;6.05;;;;;;;26.18;100.00;98949.69;1696321;84;20991;-69
2021/08/16 07:20:09;;;;;;;75.52;10.80;;;;;;;26.28;100.00;98956.64;1697748;84;21010;-70
2021/08/16 07:22:37;;;;;;;13.70;6.37;;;;;;;26.37;100.00;98951.08;1702089;84;21128;-70
2021/08/16 07:25:06;;;;;;;11.95;6.22;;;;;;;26.44;100.00;98955.05;1697977;83;21505;-69
2021/08/16 07:27:34;;;;;;;43.35;7.67;;;;;;;26.53;100.00;98947.15;1702039;83;21501;-70
2021/08/16 07:30:01;;;;;;;10.38;5.80;;;;;;;26.62;100.00;98949.16;1696259;84;21030;-71
2021/08/16 07:32:30;;;;;;;13.25;6.17;;;;;;;26.71;100.00;98944.90;1699530;83;21078;-72
2021/08/16 07:35:01;;;;;;;13.58;5.87;;;;;;;26.78;100.00;98946.16;1700310;84;21169;-71
2021/08/16 07:37:29;;;;;;;10.58;5.85;;;;;;;26.86;99.56;98942.38;1697710;84;21068;-72
2021/08/16 07:39:57;;;;;;;14.78;5.70;;;;;;;26.97;100.00;98942.95;1692849;83;21485;-70
2021/08/16 07:42:26;;;;;;;10.30;5.50;;;;;;;27.07;99.57;98940.42;1696011;84;21026;-65
2021/08/16 07:44:54;;;;;;;42.80;7.37;;;;;;;27.15;99.40;98939.34;1685913;83;21000;-69
2021/08/16 07:47:24;;;;;;;11.68;5.62;;;;;;;27.22;100.00;98937.39;1686326;85;21156;-69
2021/08/16 07:49:53;;;;;;;15.55;5.87;;;;;;;27.33;100.00;98932.49;1683190;85;21039;-68
2021/08/16 07:52:22;;;;;;;14.68;5.70;;;;;;;27.42;97.97;98934.48;1685240;85;20992;-69
2021/08/16 07:54:56;;;;;;;10.28;6.22;;;;;;;27.49;97.46;98931.69;1684692;84;21004;-70
2021/08/16 07:57:25;;;;;;;11.65;5.83;;;;;;;27.55;98.84;98931.20;1662521;85;21007;-68
2021/08/16 07:59:56;;;;;;;9.70;5.53;;;;;;;27.63;99.15;98929.27;1667527;85;21977;-68
2021/08/16 08:02:29;;;;;;;10.68;5.92;;;;;;;27.71;94.33;98925.45;1699769;84;21465;-68
2021/08/16 08:04:57;;;;;;;10.32;5.22;;;;;;;27.80;93.92;98925.21;1695582;84;20979;-68
2021/08/16 08:07:25;;;;;;;9.83;5.72;;;;;;;27.85;91.59;98927.92;1702094;84;21545;-68
2021/08/16 08:09:57;;;;;;;56.53;10.43;;;;;;;27.96;89.09;98923.51;1696882;84;21046;-67
2021/08/16 08:12:25;;;;;;;10.58;5.92;;;;;;;28.06;87.13;98928.55;1700501;84;21153;-69
2021/08/16 08:14:57;;;;;;;;;;;;;;;28.14;82.59;98923.36;1694908;84;21578;-68
2021/08/16 08:17:25;;;;;;;12.03;5.60;;;;;;;28.21;79.92;98917.80;1695148;84;20449;-68
2021/08/16 08:19:55;;;;;;;20.25;7.28;;;;;;;28.25;77.38;98926.59;1694548;84;20948;-68
2021/08/16 08:22:24;;;;;;;59.83;9.43;;;;;;;28.27;77.06;98922.76;1691118;84;21083;-68
2021/08/16 08:24:54;;;;;;;7.75;5.20;;;;;;;28.32;79.62;98924.59;1696876;84;21838;-68
2021/08/16 08:27:22;;;;;;;16.27;5.75;;;;;;;28.39;77.72;98924.98;1700349;84;20943;-68
2021/08/16 08:29:50;;;;;;;78.70;10.18;;;;;;;28.45;76.95;98921.27;1692226;84;20943;-68
2021/08/16 08:32:17;;;;;;;11.35;5.03;;;;;;;28.51;75.90;98928.89;1695031;84;20935;-69
2021/08/16 08:34:45;;;;;;;10.75;5.22;;;;;;;28.57;74.09;98927.52;1699339;84;20860;-68
2021/08/16 08:37:14;;;;;;;16.12;5.00;;;;;;;28.64;77.45;98928.73;1697407;84;21791;-68
2021/08/16 08:39:45;;;;;;;27.30;5.10;;;;;;;28.73;77.74;98923.88;1673839;84;21403;-68
2021/08/16 08:42:14;;;;;;;13.95;4.87;;;;;;;28.81;75.40;98923.23;1666326;85;21462;-68
2021/08/16 08:44:42;;;;;;;10.10;5.12;;;;;;;28.91;74.37;98922.02;1666578;84;20896;-68
2021/08/16 08:47:13;;;;;;;9.43;4.95;;;;;;;29.01;72.75;98922.96;1664463;86;20951;-68
2021/08/16 08:49:41;;;;;;;10.43;5.47;;;;;;;29.07;71.93;98932.80;1643565;86;21148;-68
2021/08/16 08:52:10;;;;;;;10.15;6.30;;;;;;;29.14;66.98;98927.20;1679175;84;21043;-68
2021/08/16 08:54:39;;;;;;;11.08;5.08;;;;;;;29.21;67.10;98927.53;1693334;84;21034;-68
2021/08/16 08:57:09;;;;;;;8.08;5.10;;;;;;;29.25;65.70;98919.98;1701725;83;21528;-68
2021/08/16 08:59:38;;;;;;;8.98;5.53;;;;;;;29.28;65.65;98927.87;1671968;84;21051;-68
2021/08/16 09:02:11;;;;;;;8.48;5.25;;;;;;;29.28;66.28;98921.94;1701036;83;21157;-68
2021/08/16 09:04:55;;;;;;;11.25;5.12;;;;;;;29.36;67.81;98921.30;1703009;83;21521;-68
2021/08/16 09:07:38;;;;;;;32.73;7.70;;;;;;;29.44;67.32;98921.03;1694890;84;21026;-69
2021/08/16 09:10:15;;;;;;;10.08;5.28;;;;;;;29.49;65.39;98916.55;1701165;83;21026;-70
2021/08/16 09:12:46;;;;;;;37.63;7.85;;;;;;;29.54;62.94;98908.86;1703180;83;21485;-69
2021/08/16 09:15:20;;;;;;;11.95;4.97;;;;;;;29.58;60.79;98908.09;1696406;83;21794;-66
2021/08/16 09:17:48;;;;;;;25.23;5.40;;;;;;;29.65;59.21;98902.47;1665335;84;20959;-70
2021/08/16 09:20:23;;;;;;;10.13;6.12;;;;;;;29.69;60.85;98900.70;1665609;84;20945;-67
2021/08/16 09:23:09;;;;;;;6.58;4.58;;;;;;;29.72;61.08;98898.21;1660190;86;21494;-68
2021/08/16 09:25:39;;;;;;;13.05;4.80;;;;;;;29.85;61.78;98898.01;1688160;84;21675;-68
2021/08/16 09:28:09;;;;;;;14.75;4.90;;;;;;;29.93;61.02;98902.27;1688447;84;21847;-68
2021/08/16 09:30:39;;;;;;;8.85;4.42;;;;;;;29.98;58.94;98903.57;1691623;84;21577;-69
2021/08/16 09:33:16;;;;;;;9.88;4.47;;;;;;;30.03;56.20;98895.89;1687084;84;21550;-69
2021/08/16 09:35:54;;;;;;;9.73;5.25;;;;;;;30.08;53.78;98892.25;1693171;84;21017;-69
2021/08/16 09:38:40;;;;;;;8.50;4.45;;;;;;;30.16;54.95;98892.05;1692912;84;20943;-68
2021/08/16 09:41:25;;;;;;;7.30;4.87;;;;;;;30.23;53.93;98883.20;1692877;84;21148;-68
2021/08/16 09:44:07;;;;;;;7.08;4.85;;;;;;;30.30;52.60;98876.72;1688895;84;21004;-68
2021/08/16 09:46:36;;;;;;;5.75;4.58;;;;;;;30.42;52.05;98881.53;1691235;84;21549;-68
2021/08/16 09:49:07;;;;;;;9.43;4.97;;;;;;;30.49;51.25;98871.80;1692580;84;21490;-68
2021/08/16 09:51:36;;;;;;;10.25;5.25;;;;;;;30.57;49.79;98867.88;1689509;84;20915;-68
2021/08/16 09:54:05;;;;;;;8.93;4.95;;;;;;;30.65;50.98;98870.27;1665339;84;21508;-68
2021/08/16 09:56:37;;;;;;;9.85;4.90;;;;;;;30.72;51.40;98861.53;1665373;84;21569;-68
2021/08/16 09:59:03;;;;;;;9.63;5.50;;;;;;;30.71;50.53;98862.03;1665232;84;20967;-68
2021/08/16 10:01:31;;;;;;;8.15;4.90;;;;;;;30.75;49.82;98860.77;1663661;86;21000;-68
2021/08/16 10:04:00;;;;;;;8.48;5.42;;;;;;;30.76;49.31;98867.08;1688430;84;21454;-69
2021/08/16 10:06:29;;;;;;;9.15;5.45;;;;;;;30.73;48.10;98861.88;1668969;85;21142;-69
2021/08/16 10:08:56;;;;;;;18.40;6.33;;;;;;;30.77;49.80;98856.04;1687512;84;20916;-70
2021/08/16 10:11:25;;;;;;;7.87;5.30;;;;;;;30.88;51.28;98860.47;1690842;83;21010;-70
2021/08/16 10:13:55;;;;;;;9.68;5.30;;;;;;;31.01;52.02;98867.84;1698522;83;20980;-69
2021/08/16 10:16:32;;;;;;;8.28;4.60;;;;;;;31.09;48.01;98858.94;1706647;83;21647;-70
2021/08/16 10:19:14;;;;;;;19.37;5.35;;;;;;;31.19;48.71;98860.67;1693072;84;21601;-69
2021/08/16 10:21:42;;;;;;;10.68;5.58;;;;;;;31.31;49.77;98858.66;1655956;85;21042;-70
2021/08/16 10:24:19;;;;;;;84.07;10.10;;;;;;;31.38;48.55;98858.42;1640470;86;21059;-71
2021/08/16 10:26:58;;;;;;;14.00;5.37;;;;;;;31.45;48.68;98847.28;1665393;84;21026;-73
2021/08/16 10:29:30;;;;;;;9.33;5.25;;;;;;;31.53;50.53;98851.98;1660571;86;21033;-70
2021/08/16 10:32:00;;;;;;;;;;;;;;;31.59;50.28;98844.58;1651151;86;21227;-70
2021/08/16 10:34:37;;;;;;;31.02;6.58;;;;;;;31.68;49.97;98849.13;1653620;84;20101;-71
2021/08/16 10:37:12;;;;;;;8.83;5.40;;;;;;;31.66;48.78;98844.83;1659139;84;21009;-70
2021/08/16 10:39:45;;;;;;;20.17;5.95;;;;;;;31.70;48.80;98832.18;1689336;84;21434;-71
2021/08/16 10:42:15;;;;;;;11.97;5.40;;;;;;;31.77;47.53;98832.44;1691161;84;20975;-70
2021/08/16 10:44:49;;;;;;;44.85;6.55;;;;;;;31.78;46.70;98836.38;1694419;84;21824;-70
2021/08/16 10:47:29;;;;;;;7.47;4.90;;;;;;;31.72;45.27;98834.75;1687107;85;20990;-69
2021/08/16 10:50:12;;;;;;;9.95;4.97;;;;;;;31.63;45.60;98831.00;1699876;84;20947;-70
2021/08/16 10:52:43;;;;;;;9.00;4.45;;;;;;;31.70;46.25;98831.28;1698197;84;20923;-69
2021/08/16 10:55:17;;;;;;;12.93;5.97;;;;;;;31.82;44.83;98821.42;1698813;84;21022;-69
2021/08/16 10:57:45;;;;;;;11.10;7.17;;;;;;;31.85;42.22;98819.75;1668009;85;21779;-70
2021/08/16 11:00:14;;;;;;;8.05;6.10;;;;;;;31.87;41.33;98817.73;1698828;84;21085;-69
2021/08/16 11:02:42;;;;;;;6.97;5.20;;;;;;;31.90;41.40;98817.42;1667509;86;20994;-69
2021/08/16 11:05:11;;;;;;;10.18;5.17;;;;;;;31.93;41.12;98812.17;1667858;86;20867;-69
2021/08/16 11:07:40;;;;;;;9.83;5.65;;;;;;;32.00;41.16;98807.81;1642925;86;20923;-68
2021/08/16 11:10:10;;;;;;;9.63;4.67;;;;;;;32.08;41.63;98805.18;1662611;85;21162;-69
2021/08/16 11:12:45;;;;;;;8.20;4.50;;;;;;;32.15;41.43;98812.24;1671853;85;20903;-69
2021/08/16 11:15:19;;;;;;;7.22;4.83;;;;;;;32.13;41.47;98800.11;1660002;86;21557;-69
2021/08/16 11:17:48;;;;;;;13.40;6.78;;;;;;;32.13;41.13;98804.72;1672010;85;20966;-69
2021/08/16 11:20:18;;;;;;;11.63;5.67;;;;;;;32.18;39.60;98802.41;1671974;85;20915;-69
2021/08/16 11:22:53;;;;;;;9.30;5.28;;;;;;;32.21;39.18;98804.33;1614804;86;21269;-68
2021/08/16 11:25:21;;;;;;;10.70;5.62;;;;;;;32.28;38.29;98801.87;1660106;86;20900;-68
2021/08/16 11:27:48;;;;;;;5.50;4.20;;;;;;;32.34;38.39;98808.07;1672060;85;20879;-68
2021/08/16 11:30:17;;;;;;;10.80;4.70;;;;;;;32.42;38.65;98799.09;1686804;83;21093;-69